createdAt,value
2018-09-27T00:01:11.143Z,38.30
2018-09-27T00:03:39.365Z,37.60
2018-09-27T00:06:07.549Z,37.70
2018-09-27T00:08:35.779Z,37.60
2018-09-27T00:11:04.056Z,39.50
2018-09-27T00:13:32.284Z,44.00
2018-09-27T00:16:00.471Z,43.60
2018-09-27T00:18:28.693Z,49.20
2018-09-27T00:20:57.103Z,51.40
2018-09-27T00:23:25.310Z,52.20
2018-09-27T00:25:55.114Z,49.20
2018-09-27T00:28:23.356Z,49.20
2018-09-27T00:30:51.598Z,52.40
2018-09-27T00:33:19.801Z,50.70
2018-09-27T00:35:48.014Z,51.20
2018-09-27T00:38:16.259Z,54.50
2018-09-27T00:40:44.455Z,56.70
2018-09-27T00:43:12.666Z,54.60
2018-09-27T00:45:43.985Z,55.80
2018-09-27T00:48:14.220Z,56.10
2018-09-27T00:50:42.439Z,58.10
2018-09-27T00:53:10.717Z,57.60
2018-09-27T00:55:39.036Z,54.70
2018-09-27T00:58:11.775Z,58.30
2018-09-27T01:00:43.201Z,59.60
2018-09-27T01:03:14.805Z,64.70
2018-09-27T01:05:45.877Z,64.30
2018-09-27T01:08:14.264Z,66.80
2018-09-27T01:10:51.998Z,70.80
2018-09-27T01:13:20.206Z,70.70
2018-09-27T01:15:48.420Z,73.30
2018-09-27T01:18:16.626Z,73.10
2018-09-27T01:20:44.880Z,72.80
2018-09-27T01:23:13.144Z,77.10
2018-09-27T01:25:41.356Z,76.90
2018-09-27T01:28:21.600Z,77.40
2018-09-27T01:30:49.846Z,76.10
2018-09-27T01:33:18.082Z,81.80
2018-09-27T01:35:46.293Z,81.80
2018-09-27T01:38:14.485Z,82.70
2018-09-27T01:40:44.496Z,88.90
2018-09-27T01:43:12.684Z,88.10
2018-09-27T01:45:40.908Z,90.90
2018-09-27T01:48:09.111Z,91.80
2018-09-27T01:50:37.335Z,92.00
2018-09-27T01:53:05.789Z,92.60
2018-09-27T01:55:33.995Z,93.50
2018-09-27T01:58:11.051Z,94.60
2018-09-27T02:00:39.401Z,92.60
2018-09-27T02:03:13.413Z,91.10
2018-09-27T02:08:09.597Z,88.40
2018-09-27T02:10:37.825Z,91.20
2018-09-27T02:13:06.142Z,93.50
2018-09-27T02:15:34.298Z,93.10
2018-09-27T02:18:02.543Z,94.50
2018-09-27T02:20:30.849Z,94.20
2018-09-27T02:22:59.024Z,96.40
2018-09-27T02:25:27.214Z,91.60
2018-09-27T02:27:55.388Z,93.10
2018-09-27T02:30:23.556Z,94.20
2018-09-27T02:32:51.732Z,95.20
2018-09-27T02:35:19.884Z,97.70
2018-09-27T02:37:48.074Z,99.90
2018-09-27T02:40:16.254Z,99.80
2018-09-27T02:42:44.486Z,99.90
2018-09-27T02:45:12.680Z,99.90
2018-09-27T02:47:40.832Z,99.90
2018-09-27T02:50:08.995Z,99.90
2018-09-27T02:52:37.197Z,99.90
2018-09-27T02:55:05.440Z,99.90
2018-09-27T02:57:33.583Z,99.90
2018-09-27T03:00:01.813Z,99.90
2018-09-27T03:02:30.072Z,99.90
2018-09-27T03:04:58.249Z,99.90
2018-09-27T03:07:26.451Z,99.90
2018-09-27T03:09:54.604Z,99.90
2018-09-27T03:12:22.830Z,99.90
2018-09-27T03:14:50.969Z,99.90
2018-09-27T03:17:19.165Z,99.90
2018-09-27T03:19:47.549Z,99.90
2018-09-27T03:22:15.763Z,99.90
2018-09-27T03:24:43.924Z,99.90
2018-09-27T03:27:13.237Z,99.90
2018-09-27T03:29:43.056Z,99.90
2018-09-27T03:32:12.995Z,99.90
2018-09-27T03:34:43.850Z,99.90
2018-09-27T03:37:15.288Z,99.90
2018-09-27T03:39:43.806Z,99.90
2018-09-27T03:42:13.718Z,99.90
2018-09-27T03:44:42.163Z,99.90
2018-09-27T03:47:14.471Z,99.90
2018-09-27T03:49:42.873Z,99.90
2018-09-27T03:52:14.089Z,99.90
2018-09-27T03:54:44.049Z,99.90
2018-09-27T03:57:13.025Z,99.90
2018-09-27T03:59:41.249Z,99.90
2018-09-27T04:02:10.661Z,99.90
2018-09-27T04:04:38.953Z,99.90
2018-09-27T04:07:09.060Z,99.90
2018-09-27T04:09:37.549Z,99.90
2018-09-27T04:14:35.515Z,99.90
2018-09-27T04:17:04.443Z,99.90
2018-09-27T04:19:32.747Z,99.90
2018-09-27T04:22:01.235Z,99.90
2018-09-27T04:24:29.467Z,99.90
2018-09-27T04:26:58.095Z,99.90
2018-09-27T04:29:26.677Z,99.90
2018-09-27T04:31:55.589Z,99.90
2018-09-27T04:34:25.761Z,99.90
2018-09-27T04:36:54.127Z,99.90
2018-09-27T04:39:23.291Z,99.90
2018-09-27T04:44:19.736Z,99.90
2018-09-27T04:46:48.137Z,99.90
2018-09-27T04:49:16.978Z,99.90
2018-09-27T04:51:45.261Z,99.90
2018-09-27T04:54:22.760Z,99.90
2018-09-27T04:56:51.003Z,99.90
2018-09-27T04:59:21.821Z,99.90
2018-09-27T05:01:50.121Z,99.90
2018-09-27T05:04:29.429Z,99.90
2018-09-27T05:06:57.788Z,99.90
2018-09-27T05:09:26.015Z,99.90
2018-09-27T05:11:54.184Z,99.90
2018-09-27T05:14:24.629Z,99.90
2018-09-27T05:16:53.060Z,99.90
2018-09-27T05:19:21.285Z,99.90
2018-09-27T05:21:49.457Z,99.90
2018-09-27T05:24:18.773Z,99.90
2018-09-27T05:26:47.080Z,99.90
2018-09-27T05:29:15.286Z,99.90
2018-09-27T05:31:43.461Z,99.90
2018-09-27T05:34:11.726Z,99.90
2018-09-27T05:36:39.902Z,99.90
2018-09-27T05:39:09.927Z,99.90
2018-09-27T05:41:38.209Z,99.90
2018-09-27T05:44:06.703Z,99.90
2018-09-27T05:46:34.895Z,99.90
2018-09-27T05:49:03.098Z,99.90
2018-09-27T05:51:31.311Z,99.90
2018-09-27T05:53:59.495Z,99.90
2018-09-27T05:56:27.678Z,99.90
2018-09-27T05:58:55.847Z,99.90
2018-09-27T06:01:24.011Z,99.90
2018-09-27T06:03:52.198Z,99.90
2018-09-27T06:06:20.374Z,99.90
2018-09-27T06:08:48.608Z,99.90
2018-09-27T06:11:16.883Z,99.90
2018-09-27T06:13:45.040Z,99.90
2018-09-27T06:16:13.280Z,99.90
2018-09-27T06:18:41.597Z,99.90
2018-09-27T06:21:09.801Z,99.90
2018-09-27T06:23:38.082Z,99.90
2018-09-27T06:26:06.391Z,99.90
2018-09-27T06:28:34.549Z,99.90
2018-09-27T06:31:02.740Z,99.90
2018-09-27T06:33:30.977Z,99.90
2018-09-27T06:35:59.142Z,99.10
2018-09-27T06:38:27.400Z,98.60
2018-09-27T06:40:55.512Z,98.30
2018-09-27T06:43:23.685Z,99.90
2018-09-27T06:45:51.868Z,99.10
2018-09-27T06:48:20.091Z,98.20
2018-09-27T06:50:48.229Z,97.30
2018-09-27T06:53:16.477Z,96.10
2018-09-27T06:55:44.785Z,98.50
2018-09-27T06:58:12.938Z,98.50
2018-09-27T07:00:41.215Z,92.60
2018-09-27T07:03:09.352Z,92.40
2018-09-27T07:05:37.555Z,94.50
2018-09-27T07:08:05.809Z,95.50
2018-09-27T07:10:34.483Z,97.00
2018-09-27T07:13:02.649Z,98.80
2018-09-27T07:15:30.845Z,97.30
2018-09-27T07:17:58.987Z,97.70
2018-09-27T07:20:27.203Z,96.90
2018-09-27T07:22:55.341Z,94.40
2018-09-27T07:27:51.400Z,94.60
2018-09-27T07:30:19.652Z,91.50
2018-09-27T07:32:47.776Z,91.50
2018-09-27T07:35:15.967Z,93.70
2018-09-27T07:37:44.112Z,92.90
2018-09-27T07:40:12.291Z,93.90
2018-09-27T07:42:40.474Z,92.70
2018-09-27T07:45:08.595Z,88.80
2018-09-27T07:47:36.733Z,87.90
2018-09-27T07:50:04.924Z,86.60
2018-09-27T07:52:33.124Z,84.80
2018-09-27T07:55:01.263Z,87.60
2018-09-27T07:57:29.452Z,77.40
2018-09-27T07:59:57.632Z,69.60
2018-09-27T08:02:25.809Z,68.10
2018-09-27T08:04:53.977Z,63.40
2018-09-27T08:07:22.193Z,62.70
2018-09-27T08:09:50.361Z,62.10
2018-09-27T08:12:18.557Z,65.60
2018-09-27T08:14:46.759Z,58.20
2018-09-27T08:17:14.992Z,59.00
2018-09-27T08:19:43.105Z,45.80
2018-09-27T08:22:11.375Z,49.50
2018-09-27T08:24:39.710Z,42.80
2018-09-27T08:27:07.877Z,42.60
2018-09-27T08:29:36.040Z,50.60
2018-09-27T08:32:04.232Z,49.80
2018-09-27T08:34:32.410Z,48.30
2018-09-27T08:37:00.616Z,44.00
2018-09-27T08:39:28.821Z,48.40
2018-09-27T08:41:57.060Z,31.40
2018-09-27T08:44:25.298Z,34.50
2018-09-27T08:46:53.394Z,35.30
2018-09-27T08:49:21.603Z,30.60
2018-09-27T08:51:49.792Z,33.60
2018-09-27T08:54:17.959Z,28.50
2018-09-27T08:56:46.100Z,31.10
2018-09-27T08:59:14.342Z,17.50
2018-09-27T09:01:42.559Z,17.00
2018-09-27T09:04:10.674Z,19.90
2018-09-27T09:06:38.830Z,20.80
2018-09-27T09:09:09.433Z,20.50
2018-09-27T09:11:37.586Z,23.20
2018-09-27T09:14:05.892Z,19.00
2018-09-27T09:16:34.171Z,14.40
2018-09-27T09:19:02.338Z,11.40
2018-09-27T09:21:30.556Z,8.50
2018-09-27T09:23:58.691Z,8.00
2018-09-27T09:26:26.845Z,6.90
2018-09-27T09:28:55.017Z,4.00
2018-09-27T09:31:23.169Z,4.60
2018-09-27T09:33:51.368Z,4.70
2018-09-27T09:36:19.544Z,6.50
2018-09-27T09:38:47.734Z,6.60
2018-09-27T09:41:15.915Z,5.50
2018-09-27T09:43:44.163Z,4.10
2018-09-27T09:48:40.265Z,3.30
2018-09-27T09:51:08.408Z,2.90
2018-09-27T09:53:36.626Z,1.00
2018-09-27T09:56:05.110Z,1.00
2018-09-27T09:58:33.286Z,1.00
2018-09-27T10:01:01.482Z,1.00
2018-09-27T10:03:29.639Z,1.00
2018-09-27T10:05:57.795Z,1.00
2018-09-27T10:08:25.988Z,1.00
2018-09-27T10:10:54.426Z,1.00
2018-09-27T10:13:22.621Z,1.00
2018-09-27T10:15:50.774Z,1.00
2018-09-27T10:18:19.064Z,1.00
2018-09-27T10:20:47.220Z,1.00
2018-09-27T10:23:15.405Z,1.00
2018-09-27T10:25:43.593Z,1.00
2018-09-27T10:28:11.751Z,1.00
2018-09-27T10:30:39.959Z,1.00
2018-09-27T10:33:08.122Z,1.00
2018-09-27T10:35:36.376Z,1.00
2018-09-27T10:38:04.535Z,1.00
2018-09-27T10:40:32.864Z,1.00
2018-09-27T10:43:01.121Z,1.00
2018-09-27T10:45:29.344Z,1.00
2018-09-27T10:47:57.723Z,1.00
2018-09-27T10:50:25.885Z,1.00
2018-09-27T10:52:54.052Z,1.00
2018-09-27T10:55:22.214Z,1.00
2018-09-27T10:57:50.402Z,1.00
2018-09-27T11:00:21.469Z,1.00
2018-09-27T11:02:49.776Z,1.00
2018-09-27T11:05:17.959Z,1.00
2018-09-27T11:07:46.093Z,1.00
2018-09-27T11:10:14.252Z,1.00
2018-09-27T11:12:42.597Z,1.00
2018-09-27T11:15:10.767Z,1.00
2018-09-27T11:17:39.369Z,1.00
2018-09-27T11:20:07.513Z,1.00
2018-09-27T11:22:35.816Z,1.00
2018-09-27T11:25:04.043Z,1.00
2018-09-27T11:27:32.333Z,1.00
2018-09-27T11:30:05.892Z,1.00
2018-09-27T11:32:38.316Z,1.00
2018-09-27T11:35:07.052Z,1.00
2018-09-27T11:37:35.281Z,1.00
2018-09-27T11:40:03.783Z,1.00
2018-09-27T11:42:32.054Z,1.00
2018-09-27T11:45:00.157Z,1.00
2018-09-27T11:47:28.378Z,1.00
2018-09-27T11:49:56.617Z,1.00
2018-09-27T11:52:24.769Z,1.00
2018-09-27T11:54:52.937Z,1.00
2018-09-27T11:57:21.120Z,1.00
2018-09-27T11:59:49.276Z,1.00
2018-09-27T12:02:17.420Z,1.00
2018-09-27T12:04:45.577Z,1.00
2018-09-27T12:07:13.760Z,1.00
2018-09-27T12:09:41.925Z,1.00
2018-09-27T12:12:10.208Z,1.00
2018-09-27T12:14:38.425Z,1.00
2018-09-27T12:17:06.874Z,1.00
2018-09-27T12:19:35.081Z,1.00
2018-09-27T12:22:03.295Z,1.00
2018-09-27T12:24:31.608Z,1.00
2018-09-27T12:26:59.858Z,1.00
2018-09-27T12:29:28.010Z,1.00
2018-09-27T12:31:57.577Z,1.00
2018-09-27T12:36:55.029Z,1.00
2018-09-27T12:39:23.636Z,1.00
2018-09-27T12:41:51.953Z,1.00
2018-09-27T12:44:20.080Z,1.00
2018-09-27T12:46:49.192Z,1.00
2018-09-27T12:49:17.384Z,1.00
2018-09-27T12:51:45.656Z,1.00
2018-09-27T12:56:41.763Z,1.00
2018-09-27T12:59:10.033Z,1.00
2018-09-27T13:01:38.228Z,1.00
2018-09-27T13:04:06.440Z,1.00
2018-09-27T13:06:34.632Z,1.00
2018-09-27T13:09:03.095Z,1.00
2018-09-27T13:11:32.041Z,1.00
2018-09-27T13:14:00.244Z,1.00
2018-09-27T13:16:34.993Z,1.00
2018-09-27T13:19:03.660Z,1.00
2018-09-27T13:21:32.214Z,1.00
2018-09-27T13:24:01.591Z,1.00
2018-09-27T13:26:30.064Z,1.00
2018-09-27T13:28:58.317Z,1.00
2018-09-27T13:31:26.682Z,1.00
2018-09-27T13:33:54.877Z,1.00
2018-09-27T13:36:23.237Z,1.00
2018-09-27T13:38:52.240Z,1.00
2018-09-27T13:41:20.789Z,1.00
2018-09-27T13:43:48.928Z,1.00
2018-09-27T13:46:17.079Z,1.00
2018-09-27T13:48:45.377Z,1.00
2018-09-27T13:51:13.553Z,1.00
2018-09-27T13:53:41.704Z,1.00
2018-09-27T13:56:09.964Z,1.00
2018-09-27T13:58:39.130Z,1.00
2018-09-27T14:01:07.328Z,1.00
2018-09-27T14:03:35.660Z,1.00
2018-09-27T14:06:03.805Z,1.00
2018-09-27T14:08:31.941Z,1.00
2018-09-27T14:11:00.121Z,1.00
2018-09-27T14:13:28.255Z,1.00
2018-09-27T14:15:56.469Z,1.00
2018-09-27T14:18:24.713Z,1.00
2018-09-27T14:20:52.872Z,1.00
2018-09-27T14:23:21.022Z,1.00
2018-09-27T14:25:49.293Z,1.00
2018-09-27T14:28:17.456Z,1.00
2018-09-27T14:30:45.626Z,1.00
2018-09-27T14:33:13.899Z,1.00
2018-09-27T14:35:42.086Z,1.00
2018-09-27T14:38:10.313Z,1.00
2018-09-27T14:40:38.546Z,1.00
2018-09-27T14:43:07.136Z,1.00
2018-09-27T14:45:35.298Z,1.00
2018-09-27T14:48:03.524Z,1.00
2018-09-27T14:50:31.647Z,1.00
2018-09-27T14:52:59.869Z,1.00
2018-09-27T14:55:28.043Z,1.00
2018-09-27T14:57:56.225Z,1.00
2018-09-27T15:00:25.865Z,1.00
2018-09-27T15:02:54.021Z,1.00
2018-09-27T15:05:22.189Z,1.00
2018-09-27T15:07:50.336Z,1.00
2018-09-27T15:10:18.522Z,1.00
2018-09-27T15:12:46.860Z,1.00
2018-09-27T15:15:14.988Z,1.00
2018-09-27T15:17:43.144Z,1.00
2018-09-27T15:20:11.346Z,1.00
2018-09-27T15:22:39.563Z,1.00
2018-09-27T15:25:07.694Z,1.00
2018-09-27T15:27:35.858Z,1.00
2018-09-27T15:30:04.575Z,1.00
2018-09-27T15:32:32.800Z,1.00
2018-09-27T15:35:00.960Z,1.00
2018-09-27T15:37:29.166Z,1.00
2018-09-27T15:39:57.453Z,1.00
2018-09-27T15:42:25.578Z,1.00
2018-09-27T15:44:53.758Z,1.00
2018-09-27T15:47:22.057Z,1.00
2018-09-27T15:49:50.316Z,1.00
2018-09-27T15:52:18.488Z,1.00
2018-09-27T15:54:46.622Z,1.00
2018-09-27T15:57:14.767Z,1.00
2018-09-27T15:59:42.969Z,1.00
2018-09-27T16:04:39.204Z,1.00
2018-09-27T16:07:07.385Z,1.00
2018-09-27T16:09:35.551Z,1.00
2018-09-27T16:12:03.753Z,1.00
2018-09-27T16:14:31.893Z,1.00
2018-09-27T16:17:00.182Z,1.00
2018-09-27T16:19:28.363Z,1.00
2018-09-27T16:24:24.476Z,1.00
2018-09-27T16:26:52.714Z,1.00
2018-09-27T16:29:20.900Z,1.00
2018-09-27T16:31:49.029Z,1.00
2018-09-27T16:34:17.222Z,1.00
2018-09-27T16:36:45.418Z,1.00
2018-09-27T16:39:13.598Z,1.00
2018-09-27T16:41:41.783Z,1.00
2018-09-27T16:44:09.959Z,1.00
2018-09-27T16:46:39.809Z,1.00
2018-09-27T16:49:08.065Z,1.00
2018-09-27T16:51:36.326Z,1.00
2018-09-27T16:54:04.748Z,1.00
2018-09-27T16:56:32.948Z,1.00
2018-09-27T16:59:01.120Z,1.00
2018-09-27T17:01:29.644Z,1.00
2018-09-27T17:03:57.864Z,1.00
2018-09-27T17:06:26.973Z,1.00
2018-09-27T17:08:55.385Z,1.00
2018-09-27T17:11:23.574Z,1.00
2018-09-27T17:14:01.952Z,1.00
2018-09-27T17:18:58.563Z,1.00
2018-09-27T17:21:26.726Z,1.00
2018-09-27T17:23:55.000Z,1.00
2018-09-27T17:26:23.299Z,1.00
2018-09-27T17:28:51.489Z,1.00
2018-09-27T17:31:19.772Z,1.00
2018-09-27T17:33:48.692Z,1.00
2018-09-27T17:36:17.546Z,1.00
2018-09-27T17:38:45.852Z,1.00
2018-09-27T17:41:14.088Z,1.00
2018-09-27T17:43:42.258Z,1.00
2018-09-27T17:46:10.405Z,1.00
2018-09-27T17:48:38.611Z,1.00
2018-09-27T17:51:06.958Z,1.00
2018-09-27T17:56:03.070Z,1.00
2018-09-27T17:58:31.317Z,1.00
2018-09-27T18:00:59.547Z,1.00
2018-09-27T18:03:27.728Z,1.00
2018-09-27T18:05:55.901Z,1.00
2018-09-27T18:08:24.048Z,1.00
2018-09-27T18:10:52.188Z,1.00
2018-09-27T18:13:20.432Z,1.00
2018-09-27T18:15:48.603Z,1.00
2018-09-27T18:18:16.769Z,1.00
2018-09-27T18:20:44.905Z,1.00
2018-09-27T18:23:13.060Z,1.00
2018-09-27T18:25:41.285Z,1.00
2018-09-27T18:28:09.397Z,1.00
2018-09-27T18:30:37.540Z,1.00
2018-09-27T18:33:05.759Z,1.00
2018-09-27T18:35:34.072Z,1.00
2018-09-27T18:38:02.479Z,1.00
2018-09-27T18:40:30.501Z,1.00
2018-09-27T18:42:58.787Z,1.00
2018-09-27T18:45:26.937Z,1.00
2018-09-27T18:47:55.109Z,1.00
2018-09-27T18:50:23.285Z,1.00
2018-09-27T18:55:19.452Z,1.00
2018-09-27T18:57:47.723Z,1.00
2018-09-27T19:00:15.820Z,1.00
2018-09-27T19:02:44.010Z,1.00
2018-09-27T19:05:12.557Z,1.00
2018-09-27T19:07:40.761Z,1.00
2018-09-27T19:10:08.951Z,1.00
2018-09-27T19:12:37.148Z,1.00
2018-09-27T19:15:05.307Z,1.00
2018-09-27T19:17:33.490Z,1.00
2018-09-27T19:20:01.696Z,1.00
2018-09-27T19:22:29.902Z,1.00
2018-09-27T19:24:58.028Z,1.00
2018-09-27T19:27:26.275Z,1.00
2018-09-27T19:29:54.443Z,1.00
2018-09-27T19:32:22.603Z,1.00
2018-09-27T19:34:50.760Z,1.00
2018-09-27T19:37:18.938Z,1.00
2018-09-27T19:39:47.144Z,1.00
2018-09-27T19:42:15.315Z,1.00
2018-09-27T19:44:43.456Z,1.00
2018-09-27T19:47:11.687Z,1.00
2018-09-27T19:49:39.837Z,1.00
2018-09-27T19:52:08.051Z,1.00
2018-09-27T19:54:36.196Z,1.00
2018-09-27T19:57:04.390Z,1.00
2018-09-27T19:59:32.557Z,1.00
2018-09-27T20:02:00.945Z,1.00
2018-09-27T20:04:29.153Z,1.00
2018-09-27T20:06:57.231Z,1.00
2018-09-27T20:11:53.352Z,1.00
2018-09-27T20:14:21.536Z,1.00
2018-09-27T20:16:49.734Z,1.00
2018-09-27T20:19:17.854Z,1.00
2018-09-27T20:21:46.020Z,1.00
2018-09-27T20:24:15.021Z,1.00
2018-09-27T20:26:43.191Z,1.00
2018-09-27T20:29:11.378Z,1.00
2018-09-27T20:31:39.536Z,1.00
2018-09-27T20:34:07.734Z,1.00
2018-09-27T20:36:35.928Z,1.00
2018-09-27T20:39:05.199Z,1.00
2018-09-27T20:41:33.378Z,1.00
2018-09-27T20:44:01.610Z,1.00
2018-09-27T20:46:29.773Z,1.00
2018-09-27T20:48:57.940Z,1.00
2018-09-27T20:51:26.103Z,1.00
2018-09-27T20:53:54.320Z,1.00
2018-09-27T20:56:22.466Z,1.00
2018-09-27T20:58:50.663Z,1.00
2018-09-27T21:01:18.824Z,1.00
2018-09-27T21:03:46.975Z,1.00
2018-09-27T21:06:15.176Z,1.00
2018-09-27T21:08:43.320Z,1.00
2018-09-27T21:11:11.546Z,1.00
2018-09-27T21:13:39.712Z,1.00
2018-09-27T21:16:07.873Z,1.00
2018-09-27T21:18:36.054Z,1.00
2018-09-27T21:21:04.212Z,1.00
2018-09-27T21:23:32.350Z,1.00
2018-09-27T21:26:00.546Z,1.00
2018-09-27T21:28:28.684Z,3.10
2018-09-27T21:30:56.871Z,4.70
2018-09-27T21:33:25.024Z,4.00
2018-09-27T21:35:53.192Z,4.50
2018-09-27T21:40:49.315Z,8.30
2018-09-27T21:43:17.605Z,8.70
2018-09-27T21:45:45.751Z,10.60
2018-09-27T21:48:13.903Z,11.30
2018-09-27T21:50:42.185Z,11.90
2018-09-27T21:53:10.432Z,12.50
2018-09-27T21:55:38.616Z,13.30
2018-09-27T21:58:06.802Z,14.80
2018-09-27T22:00:34.946Z,16.00
2018-09-27T22:03:03.184Z,18.20
2018-09-27T22:05:31.349Z,18.80
2018-09-27T22:07:59.498Z,21.00
2018-09-27T22:10:27.711Z,20.60
2018-09-27T22:12:55.871Z,20.80
2018-09-27T22:15:24.117Z,21.50
2018-09-27T22:17:52.391Z,22.00
2018-09-27T22:20:20.532Z,24.00
2018-09-27T22:22:48.683Z,23.30
2018-09-27T22:25:16.877Z,27.20
2018-09-27T22:27:45.028Z,27.20
2018-09-27T22:30:13.212Z,27.40
2018-09-27T22:32:41.413Z,29.40
2018-09-27T22:35:09.571Z,29.40
2018-09-27T22:37:37.748Z,28.40
2018-09-27T22:40:05.967Z,30.10
2018-09-27T22:42:34.159Z,30.30
2018-09-27T22:45:02.333Z,31.20
2018-09-27T22:47:30.543Z,31.20
2018-09-27T22:49:58.699Z,31.80
2018-09-27T22:52:26.861Z,34.10
2018-09-27T22:54:55.024Z,31.10
2018-09-27T22:57:23.324Z,31.80
2018-09-27T22:59:51.480Z,30.70
2018-09-27T23:02:19.716Z,31.20
2018-09-27T23:04:47.882Z,34.00
2018-09-27T23:07:16.090Z,35.50
2018-09-27T23:09:44.228Z,38.60
2018-09-27T23:12:12.412Z,39.10
2018-09-27T23:14:40.576Z,38.30
2018-09-27T23:17:08.752Z,38.00
2018-09-27T23:19:36.894Z,41.90
2018-09-27T23:22:05.083Z,41.60
2018-09-27T23:24:33.256Z,41.40
2018-09-27T23:27:01.542Z,42.20
2018-09-27T23:31:57.649Z,44.20
2018-09-27T23:34:25.797Z,44.20
2018-09-27T23:36:53.958Z,46.30
2018-09-27T23:39:22.096Z,46.60
2018-09-27T23:41:50.249Z,49.20
2018-09-27T23:44:18.454Z,50.20
2018-09-27T23:46:46.595Z,51.30
2018-09-27T23:49:14.743Z,50.40
2018-09-27T23:51:42.913Z,51.00
2018-09-27T23:54:11.101Z,54.20
2018-09-27T23:56:39.297Z,60.50
2018-09-27T23:59:07.516Z,58.10
